createdAt,value
2018-12-08T00:01:01.125Z,98118.33
2018-12-08T00:03:29.960Z,98110.99
2018-12-08T00:05:58.916Z,98106.98
2018-12-08T00:08:28.111Z,98105.98
2018-12-08T00:10:56.954Z,98123.29
2018-12-08T00:13:25.761Z,98119.63
2018-12-08T00:15:54.634Z,98126.07
2018-12-08T00:18:23.881Z,98122.12
2018-12-08T00:20:52.840Z,98108.77
2018-12-08T00:23:21.687Z,98095.32
2018-12-08T00:25:50.488Z,98093.98
2018-12-08T00:28:19.331Z,98091.34
2018-12-08T00:30:59.154Z,98103.27
2018-12-08T00:33:28.077Z,98102.56
2018-12-08T00:35:56.996Z,98108.80
2018-12-08T00:38:25.898Z,98099.18
2018-12-08T00:40:54.739Z,98101.64
2018-12-08T00:43:23.608Z,98096.26
2018-12-08T00:45:52.580Z,98099.18
2018-12-08T00:48:21.483Z,98091.91
2018-12-08T00:50:50.296Z,98096.53
2018-12-08T00:53:19.128Z,98098.64
2018-12-08T00:55:47.929Z,98095.56
2018-12-08T00:58:16.813Z,98083.21
2018-12-08T01:00:45.727Z,98080.20
2018-12-08T01:03:14.507Z,98076.80
2018-12-08T01:05:43.350Z,98074.77
2018-12-08T01:08:12.375Z,98072.55
2018-12-08T01:10:41.192Z,98064.32
2018-12-08T01:13:10.070Z,98063.91
2018-12-08T01:15:38.951Z,98057.88
2018-12-08T01:18:07.852Z,98053.98
2018-12-08T01:20:36.647Z,98044.13
2018-12-08T01:23:05.509Z,98031.08
2018-12-08T01:25:34.488Z,98040.95
2018-12-08T01:28:03.351Z,98036.41
2018-12-08T01:30:32.332Z,98038.97
2018-12-08T01:33:01.352Z,98032.53
2018-12-08T01:35:30.267Z,98027.39
2018-12-08T01:37:59.129Z,98018.38
2018-12-08T01:40:27.945Z,98014.91
2018-12-08T01:42:56.934Z,98012.70
2018-12-08T01:45:26.478Z,98013.05
2018-12-08T01:47:55.455Z,98012.88
2018-12-08T01:50:24.346Z,98004.44
2018-12-08T01:52:53.338Z,97996.98
2018-12-08T01:55:22.307Z,97990.53
2018-12-08T01:57:51.193Z,97986.59
2018-12-08T02:00:20.123Z,97973.64
2018-12-08T02:02:48.940Z,97970.77
2018-12-08T02:05:17.859Z,97964.03
2018-12-08T02:07:46.635Z,97967.02
2018-12-08T02:10:15.523Z,97969.09
2018-12-08T02:12:44.348Z,97969.17
2018-12-08T02:15:13.407Z,97973.48
2018-12-08T02:17:42.247Z,97973.42
2018-12-08T02:20:11.084Z,97975.39
2018-12-08T02:22:39.906Z,97974.84
2018-12-08T02:25:08.743Z,97970.02
2018-12-08T02:27:37.588Z,97963.05
2018-12-08T02:30:06.627Z,97965.25
2018-12-08T02:32:35.648Z,97960.23
2018-12-08T02:35:04.936Z,97966.64
2018-12-08T02:37:33.767Z,97968.77
2018-12-08T02:40:02.643Z,97961.02
2018-12-08T02:42:31.645Z,97971.27
2018-12-08T02:45:00.510Z,97964.00
2018-12-08T02:47:29.528Z,97960.13
2018-12-08T02:49:58.497Z,97961.80
2018-12-08T02:52:27.539Z,97958.31
2018-12-08T02:54:56.360Z,97960.52
2018-12-08T02:57:25.199Z,97962.16
2018-12-08T02:59:54.041Z,97960.03
2018-12-08T03:02:22.923Z,97955.34
2018-12-08T03:04:51.871Z,97953.63
2018-12-08T03:07:20.678Z,97956.53
2018-12-08T03:09:49.611Z,97948.52
2018-12-08T03:12:18.470Z,97940.36
2018-12-08T03:14:47.419Z,97947.95
2018-12-08T03:17:16.366Z,97940.73
2018-12-08T03:19:45.232Z,97938.97
2018-12-08T03:22:14.097Z,97934.98
2018-12-08T03:24:42.875Z,97931.34
2018-12-08T03:27:11.762Z,97935.34
2018-12-08T03:29:40.653Z,97932.88
2018-12-08T03:32:09.555Z,97930.28
2018-12-08T03:34:38.487Z,97936.67
2018-12-08T03:37:07.375Z,97929.39
2018-12-08T03:39:36.319Z,97934.95
2018-12-08T03:42:05.409Z,97933.23
2018-12-08T03:44:34.223Z,97931.53
2018-12-08T03:47:03.109Z,97937.14
2018-12-08T03:49:31.985Z,97934.11
2018-12-08T03:52:00.791Z,97937.97
2018-12-08T03:54:29.687Z,97943.52
2018-12-08T03:56:58.617Z,97946.11
2018-12-08T03:59:27.492Z,97947.39
2018-12-08T04:01:56.410Z,97943.14
2018-12-08T04:04:25.212Z,97940.59
2018-12-08T04:06:54.026Z,97941.00
2018-12-08T04:09:22.879Z,97936.72
2018-12-08T04:11:51.780Z,97940.02
2018-12-08T04:14:20.656Z,97936.17
2018-12-08T04:16:49.661Z,97934.03
2018-12-08T04:19:18.480Z,97932.69
2018-12-08T04:21:47.493Z,97935.22
2018-12-08T04:24:16.376Z,97934.73
2018-12-08T04:26:45.300Z,97934.16
2018-12-08T04:29:14.311Z,97928.81
2018-12-08T04:31:43.103Z,97936.06
2018-12-08T04:34:11.949Z,97944.59
2018-12-08T04:36:40.779Z,97942.13
2018-12-08T04:39:09.699Z,97943.85
2018-12-08T04:41:38.541Z,97933.10
2018-12-08T04:44:07.457Z,97931.76
2018-12-08T04:46:36.333Z,97932.17
2018-12-08T04:49:05.163Z,97932.63
2018-12-08T04:51:33.964Z,97935.13
2018-12-08T04:54:02.894Z,97935.50
2018-12-08T04:56:31.716Z,97940.20
2018-12-08T04:59:00.686Z,97933.45
2018-12-08T05:01:29.642Z,97936.42
2018-12-08T05:03:58.397Z,97930.75
2018-12-08T05:06:27.326Z,97918.34
2018-12-08T05:08:56.145Z,97917.88
2018-12-08T05:11:24.929Z,97924.38
2018-12-08T05:13:53.788Z,97929.17
2018-12-08T05:16:22.639Z,97926.97
2018-12-08T05:18:51.455Z,97924.67
2018-12-08T05:21:20.272Z,97927.03
2018-12-08T05:23:49.177Z,97908.58
2018-12-08T05:26:18.052Z,97910.96
2018-12-08T05:28:46.957Z,97909.30
2018-12-08T05:31:15.865Z,97915.84
2018-12-08T05:33:44.679Z,97923.09
2018-12-08T05:36:13.603Z,97926.11
2018-12-08T05:38:42.443Z,97920.02
2018-12-08T05:41:11.380Z,97912.67
2018-12-08T05:43:40.219Z,97910.33
2018-12-08T05:46:09.100Z,97914.38
2018-12-08T05:48:37.920Z,97909.23
2018-12-08T05:51:06.862Z,97918.03
2018-12-08T05:53:35.679Z,97913.23
2018-12-08T05:56:04.641Z,97913.85
2018-12-08T05:58:33.442Z,97907.92
2018-12-08T06:01:02.250Z,97901.23
2018-12-08T06:03:31.160Z,97901.81
2018-12-08T06:05:59.948Z,97898.59
2018-12-08T06:08:28.785Z,97899.06
2018-12-08T06:10:57.608Z,97902.06
2018-12-08T06:13:26.461Z,97903.73
2018-12-08T06:15:55.430Z,97904.12
2018-12-08T06:18:24.242Z,97909.70
2018-12-08T06:20:53.044Z,97929.45
2018-12-08T06:23:21.880Z,97923.10
2018-12-08T06:25:50.910Z,97927.85
2018-12-08T06:28:28.915Z,97927.42
2018-12-08T06:30:57.809Z,97934.41
2018-12-08T06:33:27.069Z,97931.45
2018-12-08T06:35:56.327Z,97926.28
2018-12-08T06:38:25.671Z,97930.73
2018-12-08T06:40:54.705Z,97927.50
2018-12-08T06:43:23.921Z,97922.75
2018-12-08T06:45:53.184Z,97925.20
2018-12-08T06:48:22.388Z,97929.05
2018-12-08T06:50:51.583Z,97923.59
2018-12-08T06:53:20.681Z,97923.19
2018-12-08T06:55:49.443Z,97907.36
2018-12-08T06:58:18.482Z,97922.28
2018-12-08T07:00:47.656Z,97926.29
2018-12-08T07:03:16.533Z,97923.05
2018-12-08T07:05:45.375Z,97918.15
2018-12-08T07:08:14.231Z,97912.75
2018-12-08T07:10:42.996Z,97910.86
2018-12-08T07:13:11.838Z,97908.45
2018-12-08T07:15:40.621Z,97903.91
2018-12-08T07:18:09.482Z,97906.56
2018-12-08T07:20:38.279Z,97910.50
2018-12-08T07:23:07.063Z,97900.67
2018-12-08T07:25:36.021Z,97899.45
2018-12-08T07:28:06.415Z,97884.38
2018-12-08T07:30:35.500Z,97879.25
2018-12-08T07:33:04.420Z,97885.32
2018-12-08T07:35:33.633Z,97868.48
2018-12-08T07:38:02.570Z,97870.17
2018-12-08T07:40:31.468Z,97872.75
2018-12-08T07:43:00.418Z,97869.34
2018-12-08T07:45:29.398Z,97877.53
2018-12-08T07:47:58.398Z,97876.23
2018-12-08T07:50:27.210Z,97886.99
2018-12-08T07:52:56.155Z,97897.33
2018-12-08T07:55:25.078Z,97907.27
2018-12-08T07:57:53.998Z,97915.89
2018-12-08T08:00:22.967Z,97924.98
2018-12-08T08:02:51.787Z,97924.12
2018-12-08T08:05:20.535Z,97919.35
2018-12-08T08:07:49.368Z,97915.86
2018-12-08T08:10:18.170Z,97917.53
2018-12-08T08:12:46.977Z,97917.84
2018-12-08T08:15:15.848Z,97910.02
2018-12-08T08:17:44.656Z,97907.64
2018-12-08T08:20:13.566Z,97910.31
2018-12-08T08:22:42.534Z,97898.25
2018-12-08T08:25:12.105Z,97894.38
2018-12-08T08:27:40.949Z,97895.27
2018-12-08T08:30:11.791Z,97891.27
2018-12-08T08:32:40.562Z,97878.11
2018-12-08T08:35:09.647Z,97871.54
2018-12-08T08:37:38.597Z,97861.64
2018-12-08T08:40:09.720Z,97847.55
2018-12-08T08:42:38.517Z,97835.33
2018-12-08T08:45:08.338Z,97827.23
2018-12-08T08:47:37.256Z,97821.08
2018-12-08T08:50:08.829Z,97815.59
2018-12-08T08:52:37.739Z,97819.52
2018-12-08T08:55:07.287Z,97823.47
2018-12-08T08:57:36.144Z,97823.32
2018-12-08T09:00:07.012Z,97819.38
2018-12-08T09:02:35.926Z,97814.17
2018-12-08T09:05:05.424Z,97816.73
2018-12-08T09:07:34.327Z,97810.76
2018-12-08T09:10:03.219Z,97801.66
2018-12-08T09:12:31.986Z,97801.43
2018-12-08T09:15:00.904Z,97801.91
2018-12-08T09:17:29.748Z,97796.57
2018-12-08T09:19:58.594Z,97782.48
2018-12-08T09:22:27.403Z,97778.02
2018-12-08T09:24:56.377Z,97782.09
2018-12-08T09:27:25.315Z,97777.31
2018-12-08T09:29:54.155Z,97778.42
2018-12-08T09:32:23.017Z,97776.02
2018-12-08T09:34:51.805Z,97771.71
2018-12-08T09:37:20.607Z,97776.09
2018-12-08T09:39:49.463Z,97774.41
2018-12-08T09:42:18.295Z,97775.78
2018-12-08T09:44:47.132Z,97758.29
2018-12-08T09:47:16.012Z,97757.02
2018-12-08T09:49:44.863Z,97751.23
2018-12-08T09:52:13.658Z,97743.30
2018-12-08T09:54:42.644Z,97743.00
2018-12-08T09:57:11.499Z,97744.75
2018-12-08T09:59:40.250Z,97738.41
2018-12-08T10:02:09.070Z,97733.72
2018-12-08T10:04:38.422Z,97734.89
2018-12-08T10:07:07.370Z,97741.51
2018-12-08T10:09:36.273Z,97755.38
2018-12-08T10:12:05.283Z,97749.66
2018-12-08T10:14:34.239Z,97746.91
2018-12-08T10:17:02.992Z,97749.54
2018-12-08T10:19:31.926Z,97748.56
2018-12-08T10:22:00.766Z,97752.23
2018-12-08T10:24:29.666Z,97753.27
2018-12-08T10:26:58.517Z,97750.98
2018-12-08T10:29:28.141Z,97743.66
2018-12-08T10:31:57.243Z,97731.58
2018-12-08T10:34:26.035Z,97726.56
2018-12-08T10:36:54.982Z,97726.78
2018-12-08T10:39:23.892Z,97716.43
2018-12-08T10:41:52.676Z,97708.73
2018-12-08T10:44:21.571Z,97714.24
2018-12-08T10:46:50.483Z,97715.02
2018-12-08T10:49:19.451Z,97709.89
2018-12-08T10:51:48.246Z,97705.70
2018-12-08T10:54:17.069Z,97706.59
2018-12-08T10:56:45.891Z,97704.91
2018-12-08T10:59:14.716Z,97693.85
2018-12-08T11:01:48.700Z,97697.10
2018-12-08T11:04:17.530Z,97689.22
2018-12-08T11:06:46.424Z,97686.58
2018-12-08T11:09:15.309Z,97685.59
2018-12-08T11:11:44.247Z,97682.84
2018-12-08T11:14:13.124Z,97670.95
2018-12-08T11:16:41.954Z,97665.48
2018-12-08T11:19:10.819Z,97664.06
2018-12-08T11:21:39.668Z,97662.05
2018-12-08T11:24:08.519Z,97660.63
2018-12-08T11:26:37.343Z,97655.88
2018-12-08T11:29:06.137Z,97658.66
2018-12-08T11:31:35.000Z,97657.58
2018-12-08T11:34:03.870Z,97666.63
2018-12-08T11:36:32.762Z,97674.70
2018-12-08T11:39:01.545Z,97667.59
2018-12-08T11:41:30.411Z,97650.69
2018-12-08T11:43:59.222Z,97638.69
2018-12-08T11:46:28.070Z,97644.20
2018-12-08T11:48:56.973Z,97646.83
2018-12-08T11:51:25.798Z,97636.29
2018-12-08T11:53:54.750Z,97627.16
2018-12-08T11:56:23.672Z,97632.03
2018-12-08T11:58:52.447Z,97634.64
2018-12-08T12:01:21.281Z,97621.12
2018-12-08T12:03:50.100Z,97626.90
2018-12-08T12:06:18.953Z,97617.51
2018-12-08T12:08:47.917Z,97618.64
2018-12-08T12:11:17.568Z,97621.16
2018-12-08T12:13:46.413Z,97634.99
2018-12-08T12:16:15.608Z,97643.08
2018-12-08T12:18:44.500Z,97653.39
2018-12-08T12:21:13.469Z,97644.25
2018-12-08T12:23:42.348Z,97638.33
2018-12-08T12:26:11.292Z,97632.33
2018-12-08T12:28:40.188Z,97626.69
2018-12-08T12:31:09.033Z,97624.08
2018-12-08T12:33:37.963Z,97632.39
2018-12-08T12:36:06.871Z,97634.77
2018-12-08T12:38:35.721Z,97629.02
2018-12-08T12:41:04.571Z,97624.27
2018-12-08T12:43:33.555Z,97621.15
2018-12-08T12:46:02.343Z,97614.66
2018-12-08T12:48:32.148Z,97605.37
2018-12-08T12:51:01.053Z,97611.71
2018-12-08T12:53:29.983Z,97607.61
2018-12-08T12:55:58.833Z,97597.06
2018-12-08T12:58:27.658Z,97590.32
2018-12-08T13:00:56.507Z,97592.73
2018-12-08T13:03:25.319Z,97584.59
2018-12-08T13:05:54.060Z,97575.59
2018-12-08T13:08:22.951Z,97575.50
2018-12-08T13:10:51.800Z,97570.58
2018-12-08T13:13:20.682Z,97566.83
2018-12-08T13:15:49.520Z,97564.22
2018-12-08T13:18:18.541Z,97549.10
2018-12-08T13:20:48.021Z,97538.43
2018-12-08T13:23:16.923Z,97547.11
2018-12-08T13:25:45.761Z,97545.52
2018-12-08T13:28:14.627Z,97551.67
2018-12-08T13:30:43.800Z,97567.83
2018-12-08T13:33:12.672Z,97580.63
2018-12-08T13:35:57.887Z,97587.27
2018-12-08T13:38:26.747Z,97585.49
2018-12-08T13:40:55.636Z,97594.31
2018-12-08T13:43:24.551Z,97599.09
2018-12-08T13:45:53.530Z,97593.13
2018-12-08T13:48:24.933Z,97598.00
2018-12-08T13:50:54.112Z,97612.72
2018-12-08T13:53:22.958Z,97618.40
2018-12-08T13:55:51.859Z,97617.97
2018-12-08T13:58:20.603Z,97623.41
2018-12-08T14:00:49.432Z,97622.67
2018-12-08T14:03:18.255Z,97623.17
2018-12-08T14:05:47.127Z,97633.74
2018-12-08T14:08:15.981Z,97633.19
2018-12-08T14:10:44.923Z,97632.69
2018-12-08T14:13:13.883Z,97647.64
2018-12-08T14:15:42.718Z,97663.02
2018-12-08T14:18:11.637Z,97660.91
2018-12-08T14:20:40.511Z,97660.94
2018-12-08T14:23:09.392Z,97652.34
2018-12-08T14:25:38.172Z,97641.72
2018-12-08T14:28:07.101Z,97638.20
2018-12-08T14:30:35.990Z,97635.77
2018-12-08T14:33:04.961Z,97634.77
2018-12-08T14:35:33.945Z,97638.56
2018-12-08T14:38:02.869Z,97655.63
2018-12-08T14:40:31.783Z,97645.92
2018-12-08T14:43:00.678Z,97640.49
2018-12-08T14:45:29.488Z,97625.31
2018-12-08T14:47:58.398Z,97622.19
2018-12-08T14:50:27.212Z,97615.73
2018-12-08T14:52:56.088Z,97612.92
2018-12-08T14:55:24.988Z,97613.48
2018-12-08T14:57:53.828Z,97621.03
2018-12-08T15:00:22.698Z,97626.13
2018-12-08T15:02:51.507Z,97624.92
2018-12-08T15:05:20.358Z,97613.61
2018-12-08T15:07:49.164Z,97617.48
2018-12-08T15:10:18.056Z,97623.20
2018-12-08T15:12:46.839Z,97625.13
2018-12-08T15:15:15.750Z,97645.09
2018-12-08T15:17:44.982Z,97650.73
2018-12-08T15:20:14.032Z,97650.87
2018-12-08T15:22:43.088Z,97654.47
2018-12-08T15:25:12.268Z,97664.86
2018-12-08T15:27:41.293Z,97669.66
2018-12-08T15:30:11.081Z,97676.14
2018-12-08T15:32:40.077Z,97666.63
2018-12-08T15:35:10.765Z,97668.77
2018-12-08T15:37:40.655Z,97654.88
2018-12-08T15:40:10.850Z,97647.08
2018-12-08T15:42:40.199Z,97629.88
2018-12-08T15:45:11.158Z,97630.27
2018-12-08T15:47:40.160Z,97636.74
2018-12-08T15:50:11.110Z,97627.40
2018-12-08T15:52:41.145Z,97641.22
2018-12-08T15:55:10.026Z,97648.91
2018-12-08T15:57:39.330Z,97656.17
2018-12-08T16:00:11.095Z,97653.94
2018-12-08T16:02:40.633Z,97656.15
2018-12-08T16:05:09.927Z,97658.77
2018-12-08T16:07:38.900Z,97664.03
2018-12-08T16:10:09.326Z,97673.58
2018-12-08T16:12:38.273Z,97665.47
2018-12-08T16:15:08.803Z,97652.99
2018-12-08T16:17:37.801Z,97646.97
2018-12-08T16:20:10.780Z,97641.42
2018-12-08T16:22:40.047Z,97649.12
2018-12-08T16:25:09.441Z,97651.25
2018-12-08T16:27:38.759Z,97658.55
2018-12-08T16:30:09.295Z,97649.89
2018-12-08T16:32:38.108Z,97640.81
2018-12-08T16:35:07.340Z,97645.56
2018-12-08T16:37:36.292Z,97646.06
2018-12-08T16:40:05.690Z,97646.03
2018-12-08T16:42:34.853Z,97652.55
2018-12-08T16:45:04.037Z,97654.12
2018-12-08T16:47:33.844Z,97644.56
2018-12-08T16:50:02.699Z,97640.27
2018-12-08T16:52:31.719Z,97637.30
2018-12-08T16:55:00.553Z,97633.33
2018-12-08T16:57:29.520Z,97632.91
2018-12-08T16:59:58.835Z,97639.37
2018-12-08T17:02:27.627Z,97648.41
2018-12-08T17:04:57.091Z,97654.89
2018-12-08T17:07:26.190Z,97652.72
2018-12-08T17:09:55.041Z,97647.42
2018-12-08T17:12:24.069Z,97657.80
2018-12-08T17:14:52.956Z,97662.55
2018-12-08T17:17:21.859Z,97663.50
2018-12-08T17:19:50.806Z,97654.05
2018-12-08T17:22:19.692Z,97658.89
2018-12-08T17:24:48.640Z,97672.31
2018-12-08T17:27:17.444Z,97667.43
2018-12-08T17:29:46.556Z,97672.21
2018-12-08T17:32:15.390Z,97674.11
2018-12-08T17:34:44.886Z,97678.36
2018-12-08T17:37:13.764Z,97686.52
2018-12-08T17:39:42.703Z,97684.77
2018-12-08T17:42:11.578Z,97687.89
2018-12-08T17:44:40.383Z,97682.78
2018-12-08T17:47:09.314Z,97682.85
2018-12-08T17:49:39.198Z,97674.31
2018-12-08T17:52:08.031Z,97667.03
2018-12-08T17:54:38.121Z,97663.20
2018-12-08T17:57:07.280Z,97659.77
2018-12-08T17:59:36.116Z,97651.17
2018-12-08T18:02:05.885Z,97644.73
2018-12-08T18:04:34.817Z,97637.87
2018-12-08T18:07:03.944Z,97637.84
2018-12-08T18:09:32.700Z,97630.50
2018-12-08T18:12:01.740Z,97630.56
2018-12-08T18:14:30.547Z,97639.20
2018-12-08T18:17:00.245Z,97637.02
2018-12-08T18:19:29.068Z,97641.36
2018-12-08T18:21:58.491Z,97636.20
2018-12-08T18:24:27.492Z,97639.66
2018-12-08T18:26:56.607Z,97647.87
2018-12-08T18:29:26.067Z,97651.73
2018-12-08T18:31:54.922Z,97653.46
2018-12-08T18:34:24.283Z,97643.97
2018-12-08T18:36:53.104Z,97647.00
2018-12-08T18:39:22.084Z,97650.90
2018-12-08T18:41:51.409Z,97648.72
2018-12-08T18:44:21.002Z,97639.25
2018-12-08T18:46:51.183Z,97634.95
2018-12-08T18:49:20.937Z,97630.64
2018-12-08T18:51:50.730Z,97630.66
2018-12-08T18:54:20.012Z,97631.50
2018-12-08T18:56:48.940Z,97627.62
2018-12-08T18:59:17.912Z,97631.93
2018-12-08T19:01:46.791Z,97634.50
2018-12-08T19:04:15.665Z,97633.20
2018-12-08T19:06:44.494Z,97635.80
2018-12-08T19:09:13.484Z,97630.60
2018-12-08T19:11:42.474Z,97634.05
2018-12-08T19:14:11.319Z,97631.88
2018-12-08T19:16:40.120Z,97640.02
2018-12-08T19:19:09.051Z,97635.30
2018-12-08T19:21:38.461Z,97640.89
2018-12-08T19:24:07.299Z,97640.44
2018-12-08T19:26:36.482Z,97633.10
2018-12-08T19:29:05.467Z,97637.02
2018-12-08T19:31:36.392Z,97637.89
2018-12-08T19:34:05.803Z,97643.00
2018-12-08T19:36:35.935Z,97641.30
2018-12-08T19:39:06.579Z,97646.93
2018-12-08T19:41:35.556Z,97642.16
2018-12-08T19:44:05.019Z,97647.33
2018-12-08T19:46:33.983Z,97653.34
2018-12-08T19:49:02.757Z,97647.33
2018-12-08T19:51:32.635Z,97648.16
2018-12-08T19:54:01.462Z,97647.73
2018-12-08T19:56:30.309Z,97640.83
2018-12-08T19:58:59.184Z,97637.34
2018-12-08T20:01:28.040Z,97635.61
2018-12-08T20:03:56.867Z,97631.70
2018-12-08T20:06:25.732Z,97629.98
2018-12-08T20:08:55.008Z,97624.39
2018-12-08T20:11:23.972Z,97624.80
2018-12-08T20:13:52.794Z,97621.38
2018-12-08T20:16:21.679Z,97617.93
2018-12-08T20:18:50.548Z,97620.09
2018-12-08T20:21:19.482Z,97609.78
2018-12-08T20:23:48.316Z,97615.40
2018-12-08T20:26:17.208Z,97610.64
2018-12-08T20:28:46.136Z,97603.34
2018-12-08T20:31:15.028Z,97593.47
2018-12-08T20:33:43.883Z,97586.15
2018-12-08T20:36:12.718Z,97574.09
2018-12-08T20:38:41.583Z,97574.11
2018-12-08T20:41:10.435Z,97566.80
2018-12-08T20:43:39.298Z,97564.64
2018-12-08T20:46:08.103Z,97561.66
2018-12-08T20:48:37.053Z,97574.17
2018-12-08T20:51:05.856Z,97577.62
2018-12-08T20:53:34.627Z,97579.37
2018-12-08T20:56:03.658Z,97572.06
2018-12-08T20:58:32.460Z,97577.67
2018-12-08T21:01:01.223Z,97578.98
2018-12-08T21:03:30.036Z,97575.10
2018-12-08T21:05:58.985Z,97578.11
2018-12-08T21:08:27.862Z,97582.41
2018-12-08T21:10:56.670Z,97584.57
2018-12-08T21:13:25.463Z,97585.02
2018-12-08T21:15:54.260Z,97583.71
2018-12-08T21:18:24.027Z,97599.20
2018-12-08T21:20:52.886Z,97595.76
2018-12-08T21:23:21.739Z,97598.34
2018-12-08T21:25:50.587Z,97600.95
2018-12-08T21:28:19.368Z,97603.10
2018-12-08T21:30:48.379Z,97610.83
2018-12-08T21:33:17.218Z,97611.70
2018-12-08T21:35:46.073Z,97606.95
2018-12-08T21:38:14.903Z,97597.03
2018-12-08T21:40:43.854Z,97589.28
2018-12-08T21:43:12.791Z,97585.36
2018-12-08T21:45:41.663Z,97584.50
2018-12-08T21:48:10.657Z,97584.48
2018-12-08T21:50:39.515Z,97580.18
2018-12-08T21:53:08.370Z,97581.48
2018-12-08T21:55:37.376Z,97578.44
2018-12-08T21:58:06.285Z,97571.51
2018-12-08T22:00:35.290Z,97567.58
2018-12-08T22:03:04.312Z,97569.73
2018-12-08T22:05:33.267Z,97569.28
2018-12-08T22:08:02.132Z,97570.06
2018-12-08T22:10:30.979Z,97567.41
2018-12-08T22:12:59.828Z,97562.67
2018-12-08T22:15:28.719Z,97551.02
2018-12-08T22:17:57.575Z,97549.33
2018-12-08T22:20:26.396Z,97541.53
2018-12-08T22:22:55.252Z,97541.06
2018-12-08T22:25:24.055Z,97542.42
2018-12-08T22:27:52.916Z,97543.34
2018-12-08T22:30:21.842Z,97542.46
2018-12-08T22:32:50.576Z,97542.44
2018-12-08T22:35:19.455Z,97540.73
